createdAt,value
2019-05-20T00:00:36.125Z,14.22
2019-05-20T00:03:06.964Z,14.28
2019-05-20T00:05:37.717Z,14.22
2019-05-20T00:08:08.435Z,14.29
2019-05-20T00:10:39.121Z,14.30
2019-05-20T00:13:09.813Z,14.35
2019-05-20T00:15:40.517Z,14.39
2019-05-20T00:18:11.217Z,14.37
2019-05-20T00:20:41.954Z,14.35
2019-05-20T00:23:12.556Z,14.32
2019-05-20T00:25:43.227Z,14.26
2019-05-20T00:28:13.753Z,14.24
2019-05-20T00:30:44.426Z,14.24
2019-05-20T00:33:15.096Z,14.19
2019-05-20T00:35:45.724Z,14.18
2019-05-20T00:38:16.196Z,14.11
2019-05-20T00:40:46.816Z,14.00
2019-05-20T00:43:17.468Z,13.82
2019-05-20T00:45:48.157Z,13.63
2019-05-20T00:48:18.798Z,13.54
2019-05-20T00:50:49.459Z,13.49
2019-05-20T00:53:20.086Z,13.34
2019-05-20T00:55:50.756Z,13.29
2019-05-20T00:58:21.514Z,13.48
2019-05-20T01:00:52.166Z,13.45
2019-05-20T01:03:22.863Z,13.35
2019-05-20T01:05:53.587Z,13.47
2019-05-20T01:08:24.223Z,13.34
2019-05-20T01:10:55.026Z,13.32
2019-05-20T01:13:25.653Z,13.39
2019-05-20T01:15:56.303Z,13.35
2019-05-20T01:18:27.003Z,13.28
2019-05-20T01:20:59.233Z,13.23
2019-05-20T01:23:29.867Z,13.08
2019-05-20T01:26:00.526Z,12.84
2019-05-20T01:28:31.168Z,12.87
2019-05-20T01:31:01.792Z,13.13
2019-05-20T01:33:32.416Z,13.03
2019-05-20T01:36:03.009Z,12.99
2019-05-20T01:38:33.684Z,13.04
2019-05-20T01:41:04.300Z,13.05
2019-05-20T01:43:34.838Z,13.07
2019-05-20T01:46:05.522Z,12.96
2019-05-20T01:48:36.096Z,13.02
2019-05-20T01:51:06.782Z,12.98
2019-05-20T01:53:37.329Z,13.12
2019-05-20T01:56:07.984Z,13.22
2019-05-20T01:58:39.767Z,13.14
2019-05-20T02:01:10.603Z,13.12
2019-05-20T02:03:41.226Z,13.30
2019-05-20T02:06:11.903Z,13.37
2019-05-20T02:08:42.517Z,13.38
2019-05-20T02:11:13.233Z,13.39
2019-05-20T02:14:02.766Z,13.40
2019-05-20T02:16:33.459Z,13.39
2019-05-20T02:19:04.168Z,13.48
2019-05-20T02:21:35.163Z,13.58
2019-05-20T02:24:06.243Z,13.74
2019-05-20T02:26:36.929Z,13.77
2019-05-20T02:29:07.527Z,13.71
2019-05-20T02:31:38.270Z,13.48
2019-05-20T02:34:08.972Z,13.44
2019-05-20T02:36:39.534Z,13.32
2019-05-20T02:39:10.299Z,13.40
2019-05-20T02:41:41.006Z,13.38
2019-05-20T02:44:11.613Z,13.38
2019-05-20T02:46:42.237Z,13.50
2019-05-20T02:49:12.968Z,13.57
2019-05-20T02:51:43.604Z,13.69
2019-05-20T02:54:14.214Z,13.59
2019-05-20T02:56:44.826Z,13.54
2019-05-20T02:59:15.509Z,13.65
2019-05-20T03:01:46.194Z,13.90
2019-05-20T03:04:16.909Z,13.94
2019-05-20T03:06:47.570Z,14.12
2019-05-20T03:09:18.080Z,14.30
2019-05-20T03:11:48.738Z,14.47
2019-05-20T03:14:20.953Z,14.51
2019-05-20T03:16:51.584Z,14.62
2019-05-20T03:19:22.132Z,14.67
2019-05-20T03:21:52.879Z,14.77
2019-05-20T03:24:23.438Z,14.80
2019-05-20T03:26:54.214Z,14.68
2019-05-20T03:29:25.200Z,14.62
2019-05-20T03:31:55.795Z,14.62
2019-05-20T03:34:45.684Z,14.64
2019-05-20T03:36:58.833Z,14.66
2019-05-20T03:39:29.625Z,14.65
2019-05-20T03:42:00.296Z,14.64
2019-05-20T03:44:31.057Z,14.63
2019-05-20T03:47:01.654Z,14.64
2019-05-20T03:49:32.664Z,14.68
2019-05-20T03:52:03.225Z,14.67
2019-05-20T03:54:33.909Z,14.79
2019-05-20T03:57:04.576Z,14.90
2019-05-20T03:59:35.221Z,15.02
2019-05-20T04:02:05.890Z,15.08
2019-05-20T04:04:36.622Z,15.23
2019-05-20T04:07:07.263Z,15.43
2019-05-20T04:09:38.017Z,15.66
2019-05-20T04:12:08.636Z,15.79
2019-05-20T04:14:39.362Z,15.99
2019-05-20T04:17:10.047Z,16.12
2019-05-20T04:19:40.818Z,16.33
2019-05-20T04:22:11.355Z,16.39
2019-05-20T04:24:42.456Z,16.31
2019-05-20T04:27:13.205Z,16.37
2019-05-20T04:29:44.241Z,16.52
2019-05-20T04:32:15.019Z,16.85
2019-05-20T04:34:45.737Z,17.25
2019-05-20T04:37:16.474Z,17.37
2019-05-20T04:39:47.108Z,17.29
2019-05-20T04:42:17.927Z,17.41
2019-05-20T04:44:48.936Z,17.41
2019-05-20T04:47:19.647Z,17.44
2019-05-20T04:49:50.342Z,17.48
2019-05-20T04:52:21.215Z,17.61
2019-05-20T04:54:51.896Z,17.73
2019-05-20T04:57:33.839Z,17.94
2019-05-20T05:00:05.536Z,18.18
2019-05-20T05:02:36.444Z,18.89
2019-05-20T05:05:07.838Z,19.25
2019-05-20T05:07:38.946Z,19.55
2019-05-20T05:10:12.246Z,19.43
2019-05-20T05:12:43.002Z,19.32
2019-05-20T05:15:15.018Z,20.10
2019-05-20T05:17:45.706Z,20.35
2019-05-20T05:20:18.509Z,21.35
2019-05-20T05:22:48.810Z,21.80
2019-05-20T05:25:19.567Z,21.26
2019-05-20T05:27:50.351Z,20.68
2019-05-20T05:30:21.009Z,20.52
2019-05-20T05:32:51.518Z,20.33
2019-05-20T05:35:22.243Z,19.96
2019-05-20T05:37:52.893Z,19.78
2019-05-20T05:40:30.006Z,19.46
2019-05-20T05:43:00.857Z,19.33
2019-05-20T05:45:33.355Z,19.04
2019-05-20T05:48:04.025Z,18.85
2019-05-20T05:50:34.718Z,18.27
2019-05-20T05:53:05.574Z,18.19
2019-05-20T05:55:36.540Z,18.03
2019-05-20T05:58:08.808Z,17.67
2019-05-20T06:00:39.643Z,17.77
2019-05-20T06:03:10.424Z,17.52
2019-05-20T06:05:41.137Z,17.24
2019-05-20T06:08:12.091Z,17.13
2019-05-20T06:10:42.706Z,17.02
2019-05-20T06:13:13.528Z,16.87
2019-05-20T06:15:44.944Z,16.74
2019-05-20T06:18:15.564Z,16.60
2019-05-20T06:20:46.801Z,16.63
2019-05-20T06:23:17.792Z,16.70
2019-05-20T06:25:48.477Z,16.67
2019-05-20T06:28:19.047Z,16.58
2019-05-20T06:30:53.588Z,16.75
2019-05-20T06:33:24.498Z,16.88
2019-05-20T06:35:55.447Z,17.01
2019-05-20T06:38:45.379Z,17.04
2019-05-20T06:41:17.629Z,17.11
2019-05-20T06:43:48.756Z,17.02
2019-05-20T06:46:19.622Z,16.86
2019-05-20T06:48:50.734Z,16.67
2019-05-20T06:51:22.048Z,16.74
2019-05-20T06:53:52.575Z,17.11
2019-05-20T06:56:23.348Z,17.32
2019-05-20T06:58:54.169Z,17.41
2019-05-20T07:01:24.899Z,17.27
2019-05-20T07:03:55.503Z,17.22
2019-05-20T07:06:42.815Z,17.27
2019-05-20T07:08:58.750Z,17.44
2019-05-20T07:11:29.392Z,17.31
2019-05-20T07:14:00.096Z,17.36
2019-05-20T07:16:30.835Z,17.43
2019-05-20T07:19:03.182Z,17.53
2019-05-20T07:21:34.620Z,17.62
2019-05-20T07:24:05.467Z,17.52
2019-05-20T07:26:36.105Z,17.46
2019-05-20T07:29:06.927Z,17.47
2019-05-20T07:31:37.970Z,17.67
2019-05-20T07:34:08.716Z,17.68
2019-05-20T07:36:39.783Z,17.71
2019-05-20T07:39:10.399Z,18.05
2019-05-20T07:41:41.942Z,18.54
2019-05-20T07:44:12.821Z,18.74
2019-05-20T07:46:43.555Z,18.54
2019-05-20T07:49:14.307Z,18.39
2019-05-20T07:51:46.624Z,18.40
2019-05-20T07:54:18.459Z,18.41
2019-05-20T07:56:51.028Z,18.44
2019-05-20T07:59:25.339Z,18.32
2019-05-20T08:01:56.244Z,18.33
2019-05-20T08:04:26.905Z,18.51
2019-05-20T08:06:57.658Z,18.47
2019-05-20T08:09:28.302Z,18.71
2019-05-20T08:11:59.001Z,19.12
2019-05-20T08:14:29.785Z,19.34
2019-05-20T08:17:00.444Z,19.43
2019-05-20T08:19:31.030Z,19.44
2019-05-20T08:22:01.786Z,19.47
2019-05-20T08:24:32.607Z,19.68
2019-05-20T08:27:03.558Z,19.31
2019-05-20T08:29:34.315Z,19.31
2019-05-20T08:32:05.121Z,19.55
2019-05-20T08:34:36.413Z,20.02
2019-05-20T08:37:07.832Z,20.36
2019-05-20T08:39:38.557Z,20.95
2019-05-20T08:42:09.264Z,21.14
2019-05-20T08:44:41.072Z,21.46
2019-05-20T08:47:11.890Z,21.15
2019-05-20T08:49:43.313Z,20.58
2019-05-20T08:52:14.531Z,20.14
2019-05-20T08:54:45.241Z,19.52
2019-05-20T08:57:16.036Z,19.14
2019-05-20T08:59:46.797Z,19.06
2019-05-20T09:02:17.726Z,19.04
2019-05-20T09:04:48.497Z,18.76
2019-05-20T09:07:19.342Z,18.73
2019-05-20T09:09:50.042Z,18.67
2019-05-20T09:12:20.671Z,18.62
2019-05-20T09:14:51.476Z,18.56
2019-05-20T09:17:22.214Z,18.56
2019-05-20T09:19:52.944Z,18.50
2019-05-20T09:22:23.734Z,18.48
2019-05-20T09:24:54.548Z,18.60
2019-05-20T09:27:25.393Z,18.59
2019-05-20T09:29:56.239Z,18.49
2019-05-20T09:32:27.034Z,18.39
2019-05-20T09:34:57.938Z,18.31
2019-05-20T09:37:28.850Z,18.29
2019-05-20T09:39:59.579Z,18.33
2019-05-20T09:42:30.471Z,18.18
2019-05-20T09:45:03.133Z,18.05
2019-05-20T09:47:33.435Z,17.94
2019-05-20T09:50:04.232Z,17.88
2019-05-20T09:52:35.076Z,17.92
2019-05-20T09:55:06.733Z,17.91
2019-05-20T09:57:37.398Z,17.86
2019-05-20T10:00:10.501Z,17.86
2019-05-20T10:02:41.338Z,17.86
2019-05-20T10:05:12.018Z,17.79
2019-05-20T10:07:43.239Z,17.71
2019-05-20T10:10:14.071Z,17.58
2019-05-20T10:12:46.849Z,17.60
2019-05-20T10:15:17.440Z,17.49
2019-05-20T10:17:48.264Z,17.49
2019-05-20T10:20:19.997Z,17.48
2019-05-20T10:22:50.728Z,17.47
2019-05-20T10:25:21.606Z,17.44
2019-05-20T10:27:52.382Z,17.44
2019-05-20T10:30:23.304Z,17.49
2019-05-20T10:32:54.074Z,17.59
2019-05-20T10:35:24.746Z,17.85
2019-05-20T10:37:55.429Z,18.29
2019-05-20T10:40:26.243Z,19.12
2019-05-20T10:42:56.853Z,20.06
2019-05-20T10:45:27.909Z,20.89
2019-05-20T10:47:58.610Z,20.71
2019-05-20T10:50:29.308Z,20.10
2019-05-20T10:52:59.981Z,19.44
2019-05-20T10:55:30.810Z,19.09
2019-05-20T10:58:01.414Z,18.87
2019-05-20T11:00:32.345Z,18.93
2019-05-20T11:03:03.185Z,19.31
2019-05-20T11:05:34.358Z,19.44
2019-05-20T11:08:04.976Z,19.55
2019-05-20T11:10:35.788Z,19.95
2019-05-20T11:13:06.531Z,20.25
2019-05-20T11:15:37.212Z,19.70
2019-05-20T11:18:07.993Z,20.03
2019-05-20T11:20:38.874Z,20.15
2019-05-20T11:23:09.572Z,19.95
2019-05-20T11:25:40.362Z,20.05
2019-05-20T11:28:11.959Z,20.12
2019-05-20T11:30:42.997Z,20.43
2019-05-20T11:33:13.647Z,21.03
2019-05-20T11:35:44.375Z,21.20
2019-05-20T11:38:15.225Z,21.19
2019-05-20T11:40:46.918Z,20.51
2019-05-20T11:43:17.394Z,20.15
2019-05-20T11:45:48.107Z,19.93
2019-05-20T11:48:18.878Z,19.90
2019-05-20T11:50:49.551Z,19.92
2019-05-20T11:53:21.689Z,19.78
2019-05-20T11:55:53.379Z,19.53
2019-05-20T11:58:23.857Z,19.30
2019-05-20T12:00:54.472Z,19.05
2019-05-20T12:03:25.178Z,18.81
2019-05-20T12:05:55.998Z,18.66
2019-05-20T12:08:27.026Z,18.69
2019-05-20T12:10:57.733Z,18.87
2019-05-20T12:13:28.856Z,18.99
2019-05-20T12:15:59.496Z,19.06
2019-05-20T12:18:30.297Z,19.31
2019-05-20T12:21:00.951Z,19.42
2019-05-20T12:23:31.593Z,19.88
2019-05-20T12:26:02.211Z,20.34
2019-05-20T12:28:32.846Z,20.47
2019-05-20T12:31:03.628Z,20.69
2019-05-20T12:33:34.450Z,20.69
2019-05-20T12:36:05.555Z,20.14
2019-05-20T12:38:36.217Z,19.63
2019-05-20T12:41:06.983Z,19.78
2019-05-20T12:43:37.721Z,19.82
2019-05-20T12:46:08.526Z,19.84
2019-05-20T12:48:39.249Z,19.99
2019-05-20T12:51:09.967Z,20.03
2019-05-20T12:53:40.566Z,19.83
2019-05-20T12:56:11.368Z,19.47
2019-05-20T12:58:42.071Z,19.41
2019-05-20T13:01:12.780Z,19.28
2019-05-20T13:03:43.647Z,19.05
2019-05-20T13:06:14.313Z,18.95
2019-05-20T13:08:44.865Z,19.11
2019-05-20T13:11:15.651Z,19.07
2019-05-20T13:13:47.504Z,19.19
2019-05-20T13:16:18.224Z,19.17
2019-05-20T13:18:56.161Z,19.30
2019-05-20T13:21:21.225Z,19.37
2019-05-20T13:23:51.968Z,19.73
2019-05-20T13:26:22.635Z,19.93
2019-05-20T13:28:54.352Z,19.80
2019-05-20T13:31:25.144Z,19.86
2019-05-20T13:33:55.906Z,19.89
2019-05-20T13:36:26.675Z,20.12
2019-05-20T13:38:57.416Z,20.26
2019-05-20T13:41:29.343Z,19.98
2019-05-20T13:44:10.536Z,20.30
2019-05-20T13:46:41.174Z,20.73
2019-05-20T13:49:14.671Z,20.67
2019-05-20T13:51:50.517Z,20.54
2019-05-20T13:54:23.266Z,20.25
2019-05-20T13:56:53.888Z,20.22
2019-05-20T13:59:24.596Z,20.34
2019-05-20T14:01:55.287Z,20.16
2019-05-20T14:04:25.998Z,19.83
2019-05-20T14:06:58.185Z,19.79
2019-05-20T14:09:28.929Z,19.97
2019-05-20T14:11:59.692Z,20.06
2019-05-20T14:14:30.294Z,20.17
2019-05-20T14:17:00.936Z,20.07
2019-05-20T14:19:32.694Z,19.95
2019-05-20T14:22:03.443Z,20.03
2019-05-20T14:24:34.204Z,20.58
2019-05-20T14:27:06.157Z,20.87
2019-05-20T14:29:40.461Z,20.70
2019-05-20T14:32:12.209Z,20.17
2019-05-20T14:34:42.962Z,20.28
2019-05-20T14:37:14.862Z,20.23
2019-05-20T14:39:46.778Z,20.10
2019-05-20T14:42:17.960Z,20.31
2019-05-20T14:44:48.713Z,20.40
2019-05-20T14:47:19.401Z,20.21
2019-05-20T14:49:50.248Z,20.08
2019-05-20T14:52:20.933Z,20.26
2019-05-20T14:54:51.669Z,20.46
2019-05-20T14:57:22.547Z,20.55
2019-05-20T14:59:53.425Z,20.72
2019-05-20T15:02:25.253Z,20.97
2019-05-20T15:04:55.977Z,20.91
2019-05-20T15:07:30.292Z,20.71
2019-05-20T15:09:59.390Z,20.50
2019-05-20T15:12:30.513Z,20.49
2019-05-20T15:15:01.330Z,20.65
2019-05-20T15:17:32.084Z,20.52
2019-05-20T15:20:02.942Z,20.33
2019-05-20T15:22:33.793Z,20.41
2019-05-20T15:25:04.907Z,20.30
2019-05-20T15:27:35.892Z,20.27
2019-05-20T15:30:09.441Z,20.18
2019-05-20T15:32:41.266Z,20.24
2019-05-20T15:35:15.139Z,20.38
2019-05-20T15:37:45.896Z,20.54
2019-05-20T15:40:24.099Z,20.40
2019-05-20T15:42:52.657Z,20.59
2019-05-20T15:45:23.542Z,20.38
2019-05-20T15:47:54.267Z,20.18
2019-05-20T15:50:25.135Z,20.12
2019-05-20T15:52:55.844Z,20.09
2019-05-20T15:55:26.558Z,20.05
2019-05-20T15:57:57.358Z,20.18
2019-05-20T16:00:28.075Z,20.25
2019-05-20T16:02:58.917Z,20.12
2019-05-20T16:05:29.707Z,20.02
2019-05-20T16:08:00.526Z,20.06
2019-05-20T16:10:32.271Z,20.16
2019-05-20T16:13:03.078Z,20.19
2019-05-20T16:15:33.876Z,20.23
2019-05-20T16:18:04.578Z,20.26
2019-05-20T16:20:36.504Z,20.29
2019-05-20T16:23:07.177Z,20.33
2019-05-20T16:25:40.922Z,20.39
2019-05-20T16:28:11.994Z,20.43
2019-05-20T16:30:42.728Z,20.55
2019-05-20T16:33:13.690Z,20.77
2019-05-20T16:35:45.556Z,20.57
2019-05-20T16:38:19.847Z,20.57
2019-05-20T16:40:51.911Z,20.67
2019-05-20T16:43:22.637Z,20.53
2019-05-20T16:45:53.329Z,20.39
2019-05-20T16:48:23.941Z,20.34
2019-05-20T16:50:54.801Z,20.17
2019-05-20T16:53:28.657Z,20.09
2019-05-20T16:56:00.001Z,20.02
2019-05-20T16:58:31.704Z,19.91
2019-05-20T17:01:02.492Z,19.91
2019-05-20T17:03:33.292Z,19.79
2019-05-20T17:06:06.153Z,19.70
2019-05-20T17:08:37.038Z,19.74
2019-05-20T17:11:11.412Z,19.63
2019-05-20T17:13:44.224Z,19.60
2019-05-20T17:16:14.957Z,19.58
2019-05-20T17:18:46.892Z,19.48
2019-05-20T17:21:19.985Z,19.57
2019-05-20T17:23:50.928Z,19.64
2019-05-20T17:26:21.812Z,19.67
2019-05-20T17:28:53.647Z,19.71
2019-05-20T17:31:30.649Z,19.72
2019-05-20T17:34:00.254Z,19.63
2019-05-20T17:36:32.451Z,19.69
2019-05-20T17:39:06.801Z,19.70
2019-05-20T17:41:37.640Z,19.67
2019-05-20T17:44:11.368Z,19.60
2019-05-20T17:46:43.202Z,19.60
2019-05-20T17:49:14.126Z,19.50
2019-05-20T17:51:49.163Z,19.34
2019-05-20T17:54:24.686Z,19.22
2019-05-20T17:56:57.953Z,19.12
2019-05-20T17:59:30.065Z,19.08
2019-05-20T18:02:01.884Z,18.97
2019-05-20T18:04:34.638Z,18.92
2019-05-20T18:07:05.422Z,18.82
2019-05-20T18:09:38.034Z,18.72
2019-05-20T18:12:09.964Z,18.65
2019-05-20T18:14:45.878Z,18.54
2019-05-20T18:17:24.140Z,18.43
2019-05-20T18:19:59.645Z,18.26
2019-05-20T18:22:31.510Z,18.14
2019-05-20T18:25:03.522Z,18.01
2019-05-20T18:27:37.822Z,17.96
2019-05-20T18:30:12.461Z,17.92
2019-05-20T18:32:46.808Z,17.81
2019-05-20T18:35:17.856Z,17.71
2019-05-20T18:37:48.649Z,17.62
2019-05-20T18:40:21.777Z,17.50
2019-05-20T18:42:54.812Z,17.45
2019-05-20T18:45:28.298Z,17.41
2019-05-20T18:48:00.945Z,17.40
2019-05-20T18:50:33.802Z,17.26
2019-05-20T18:53:04.552Z,17.17
2019-05-20T18:55:36.327Z,17.16
2019-05-20T18:58:11.896Z,17.18
2019-05-20T19:00:43.875Z,17.17
2019-05-20T19:03:28.784Z,17.08
2019-05-20T19:05:59.943Z,16.99
2019-05-20T19:08:32.246Z,16.89
2019-05-20T19:11:03.105Z,16.89
2019-05-20T19:13:39.422Z,16.78
2019-05-20T19:16:12.718Z,16.75
2019-05-20T19:18:50.143Z,16.64
2019-05-20T19:21:26.338Z,16.54
2019-05-20T19:23:59.635Z,16.59
2019-05-20T19:26:35.031Z,16.54
2019-05-20T19:29:05.882Z,16.51
2019-05-20T19:31:40.527Z,16.43
2019-05-20T19:34:13.872Z,16.37
2019-05-20T19:36:50.379Z,16.20
2019-05-20T19:39:21.474Z,16.19
2019-05-20T19:41:53.927Z,16.05
2019-05-20T19:44:27.289Z,16.01
2019-05-20T19:47:02.501Z,15.94
2019-05-20T19:49:33.754Z,15.95
2019-05-20T19:52:07.055Z,15.91
2019-05-20T19:54:39.033Z,15.79
2019-05-20T19:57:13.147Z,15.72
2019-05-20T19:59:44.028Z,15.73
2019-05-20T20:02:17.752Z,15.70
2019-05-20T20:04:53.627Z,15.66
2019-05-20T20:07:28.849Z,15.69
2019-05-20T20:09:59.893Z,15.78
2019-05-20T20:12:31.886Z,15.78
2019-05-20T20:15:03.766Z,15.90
2019-05-20T20:17:34.613Z,15.86
2019-05-20T20:20:09.568Z,15.78
2019-05-20T20:22:45.646Z,15.76
2019-05-20T20:25:18.932Z,15.70
2019-05-20T20:27:58.568Z,15.59
2019-05-20T20:30:31.576Z,15.66
2019-05-20T20:33:04.107Z,15.72
2019-05-20T20:35:40.990Z,15.71
2019-05-20T20:38:11.732Z,15.65
2019-05-20T20:40:42.468Z,15.55
2019-05-20T20:43:15.901Z,15.47
2019-05-20T20:45:46.697Z,15.46
2019-05-20T20:48:17.346Z,15.65
2019-05-20T20:50:48.119Z,15.59
2019-05-20T20:53:18.934Z,15.57
2019-05-20T20:55:50.626Z,15.54
2019-05-20T20:58:25.585Z,15.47
2019-05-20T21:00:56.812Z,15.45
2019-05-20T21:03:27.588Z,15.45
2019-05-20T21:06:02.392Z,15.48
2019-05-20T21:08:33.127Z,15.55
2019-05-20T21:11:04.033Z,15.59
2019-05-20T21:13:34.687Z,15.56
2019-05-20T21:16:05.411Z,15.44
2019-05-20T21:18:35.972Z,15.33
2019-05-20T21:21:06.617Z,15.32
2019-05-20T21:23:38.126Z,15.23
2019-05-20T21:26:09.247Z,15.15
2019-05-20T21:28:39.823Z,15.08
2019-05-20T21:31:10.642Z,14.93
2019-05-20T21:33:41.339Z,14.82
2019-05-20T21:36:11.889Z,14.64
2019-05-20T21:38:42.763Z,14.56
2019-05-20T21:41:13.487Z,14.52
2019-05-20T21:43:44.133Z,14.54
2019-05-20T21:46:14.687Z,14.57
2019-05-20T21:48:45.257Z,14.60
2019-05-20T21:51:15.855Z,14.65
2019-05-20T21:53:46.487Z,14.60
2019-05-20T21:56:17.207Z,14.54
2019-05-20T21:58:47.799Z,14.61
2019-05-20T22:01:18.522Z,14.70
2019-05-20T22:03:49.101Z,14.76
2019-05-20T22:06:19.782Z,14.68
2019-05-20T22:08:50.296Z,14.65
2019-05-20T22:11:20.937Z,14.54
2019-05-20T22:13:51.383Z,14.46
2019-05-20T22:16:22.137Z,14.32
2019-05-20T22:18:53.352Z,14.27
2019-05-20T22:21:28.691Z,14.22
2019-05-20T22:24:05.505Z,14.25
2019-05-20T22:26:36.758Z,14.31
2019-05-20T22:29:08.021Z,14.34
2019-05-20T22:31:39.306Z,14.33
2019-05-20T22:34:10.657Z,14.38
2019-05-20T22:36:43.406Z,14.34
2019-05-20T22:39:14.709Z,14.42
2019-05-20T22:41:46.060Z,14.46
2019-05-20T22:44:17.376Z,14.45
2019-05-20T22:46:48.906Z,14.41
2019-05-20T22:49:20.205Z,14.39
2019-05-20T22:51:51.409Z,14.32
2019-05-20T22:54:22.821Z,14.35
2019-05-20T22:56:54.083Z,14.32
2019-05-20T22:59:25.349Z,14.28
2019-05-20T23:01:56.821Z,14.30
2019-05-20T23:04:28.080Z,14.23
2019-05-20T23:06:59.409Z,14.24
2019-05-20T23:09:31.019Z,14.23
2019-05-20T23:12:02.384Z,14.23
2019-05-20T23:14:33.696Z,14.21
2019-05-20T23:17:04.993Z,14.12
2019-05-20T23:19:36.306Z,14.00
2019-05-20T23:22:07.872Z,13.93
2019-05-20T23:24:39.145Z,13.93
2019-05-20T23:27:10.505Z,13.87
2019-05-20T23:29:41.814Z,13.98
2019-05-20T23:32:13.172Z,13.90
2019-05-20T23:34:44.378Z,13.82
2019-05-20T23:37:15.801Z,13.68
2019-05-20T23:39:46.982Z,13.60
2019-05-20T23:42:18.531Z,13.54
2019-05-20T23:44:49.837Z,13.36
2019-05-20T23:47:21.160Z,13.34
2019-05-20T23:49:52.556Z,13.33
2019-05-20T23:52:23.772Z,13.32
2019-05-20T23:54:55.061Z,13.27
2019-05-20T23:57:26.375Z,13.21
2019-05-20T23:59:57.722Z,13.16
